Aérodrome :
LOGIN :

S'inscrire | Disclaimer

   EN    FR    IT 

 










Légende :    VFR   VFR Marginal   IFR   IFR Intensif   IFR Très Intensif
Visi : 
Plafond : 
>= 8 km
>= 3000ft
5 à 8 km
1000 à 3000 ft
1500m à 5 km
500 à 1000 ft
800 à 1500m
200 à 500 ft
< 800m
< 200 ft
Symboles :   Orages  Brouillard  Fortes neiges  Fortes précipitations  Vent > 20 kt
SIGMETs :   Divers  Orages  Givrage  Turbulence  Onde Orograph.  Cendres Volcan.






- Altitude de l'aérodrome : 126 ft
- Code IATA : TIA


LATI - Rinas Mother Teresa Arpt - Tirana

DERNIER METAR :
  • 191420Z 23009KT 190V260 9999 FEW030 29/18 Q1013 NOSIG

METARs EXPIRÉS :
  • 191350Z 24010KT 210V300 9999 FEW030 29/18 Q1013 NOSIG
  • 191320Z 24009KT 210V280 CAVOK 30/18 Q1013 NOSIG
  • 191250Z 25011KT 220V290 CAVOK 29/19 Q1013 NOSIG
  • 191220Z 25011KT 9999 FEW030 29/18 Q1013 NOSIG
  • 191150Z 23010KT 200V280 9999 FEW030TCU 29/18 Q1013 NOSIG

TAF TAF LATI
Valide du 19 à 12h jusqu'au 20 à 12h UTC


191100Z 1912/2012 24014KT 9999 FEW030TCU SCT050 BKN080 TX29/1912Z TN19/2003Z
TEMPO 1912/1918 4000 TSRA SCT020CB BKN040
BECMG 1918/1920 16008KT
TEMPO 2004/2010 3000 TSRA



MET'MAP, la Météo Aéronautique d'un coup d'oeil ! - Copyright ORBIFLY Décembre 2007 - Disclaimer

ORBIFLY MET'MAP TEAM :

Programmation & Développement : Alexandra Zaïnal
Sur une idée originale de : Baudouin d'Aumeries
Assistance à la programmation : Marc-Olivier Méhu
Soutien technique & logistique : Manuel Goepfert

Contact : metmap@orbifly.com




SOURCES & CREDITS :

   NOAA